sensor_id;sensor_type;location;lat;lon;timestamp;P1;durP1;ratioP1;P2;durP2;ratioP2
39584;SDS011;25278;53.674;10.014;2022-10-16T03:32:37;3.97;;;1.60;;
39584;SDS011;25278;53.674;10.014;2022-10-16T03:35:03;6.45;;;2.10;;
39584;SDS011;25278;53.674;10.014;2022-10-16T03:37:29;5.95;;;3.05;;
39584;SDS011;25278;53.674;10.014;2022-10-16T03:39:55;4.47;;;1.90;;
39584;SDS011;25278;53.674;10.014;2022-10-16T03:42:21;5.00;;;2.10;;
39584;SDS011;25278;53.674;10.014;2022-10-16T03:44:47;7.40;;;1.88;;
39584;SDS011;25278;53.674;10.014;2022-10-16T03:47:13;6.00;;;2.20;;
39584;SDS011;25278;53.674;10.014;2022-10-16T03:49:39;5.75;;;2.20;;
39584;SDS011;25278;53.674;10.014;2022-10-16T03:52:05;2.30;;;1.70;;
39584;SDS011;25278;53.674;10.014;2022-10-16T03:54:31;5.70;;;2.67;;
39584;SDS011;25278;53.674;10.014;2022-10-16T03:56:57;6.60;;;2.00;;
39584;SDS011;25278;53.674;10.014;2022-10-16T03:59:23;4.72;;;2.03;;
39584;SDS011;25278;53.674;10.014;2022-10-16T04:01:49;6.20;;;1.98;;
39584;SDS011;25278;53.674;10.014;2022-10-16T04:04:15;7.65;;;1.85;;
39584;SDS011;25278;53.674;10.014;2022-10-16T04:06:41;3.45;;;2.17;;
39584;SDS011;25278;53.674;10.014;2022-10-16T04:09:06;6.35;;;2.08;;
39584;SDS011;25278;53.674;10.014;2022-10-16T04:11:32;6.72;;;2.10;;
39584;SDS011;25278;53.674;10.014;2022-10-16T04:13:58;3.22;;;1.50;;
39584;SDS011;25278;53.674;10.014;2022-10-16T04:16:24;7.97;;;1.88;;
39584;SDS011;25278;53.674;10.014;2022-10-16T04:18:50;7.65;;;2.17;;
39584;SDS011;25278;53.674;10.014;2022-10-16T04:21:16;4.72;;;1.80;;
39584;SDS011;25278;53.674;10.014;2022-10-16T04:23:42;4.25;;;1.55;;
39584;SDS011;25278;53.674;10.014;2022-10-16T04:26:08;3.20;;;1.85;;
39584;SDS011;25278;53.674;10.014;2022-10-16T04:28:35;6.68;;;2.65;;
39584;SDS011;25278;53.674;10.014;2022-10-16T04:31:04;5.13;;;1.70;;
39584;SDS011;25278;53.674;10.014;2022-10-16T04:33:30;2.85;;;1.60;;
39584;SDS011;25278;53.674;10.014;2022-10-16T04:35:57;3.47;;;1.63;;
39584;SDS011;25278;53.674;10.014;2022-10-16T04:38:23;4.18;;;2.00;;
39584;SDS011;25278;53.674;10.014;2022-10-16T04:40:49;6.63;;;2.47;;
39584;SDS011;25278;53.674;10.014;2022-10-16T04:43:21;4.10;;;1.80;;
39584;SDS011;25278;53.674;10.014;2022-10-16T04:45:47;7.95;;;1.73;;
39584;SDS011;25278;53.674;10.014;2022-10-16T04:48:15;4.85;;;1.80;;
39584;SDS011;25278;53.674;10.014;2022-10-16T04:50:41;5.50;;;1.70;;
39584;SDS011;25278;53.674;10.014;2022-10-16T04:53:07;4.03;;;1.50;;
39584;SDS011;25278;53.674;10.014;2022-10-16T04:55:33;7.47;;;1.63;;
39584;SDS011;25278;53.674;10.014;2022-10-16T04:57:59;6.85;;;1.73;;
39584;SDS011;25278;53.674;10.014;2022-10-16T05:00:25;4.47;;;1.63;;
39584;SDS011;25278;53.674;10.014;2022-10-16T05:02:52;6.45;;;2.28;;
39584;SDS011;25278;53.674;10.014;2022-10-16T05:05:18;4.30;;;2.00;;
39584;SDS011;25278;53.674;10.014;2022-10-16T05:07:45;5.20;;;2.00;;
39584;SDS011;25278;53.674;10.014;2022-10-16T05:10:11;3.60;;;2.28;;
39584;SDS011;25278;53.674;10.014;2022-10-16T05:12:37;4.75;;;1.88;;
39584;SDS011;25278;53.674;10.014;2022-10-16T05:15:03;4.45;;;2.20;;
39584;SDS011;25278;53.674;10.014;2022-10-16T05:17:30;6.50;;;2.38;;
39584;SDS011;25278;53.674;10.014;2022-10-16T05:19:56;7.93;;;2.55;;
39584;SDS011;25278;53.674;10.014;2022-10-16T05:22:22;8.63;;;2.85;;
39584;SDS011;25278;53.674;10.014;2022-10-16T05:24:50;4.55;;;2.60;;
39584;SDS011;25278;53.674;10.014;2022-10-16T05:27:16;6.25;;;2.92;;
39584;SDS011;25278;53.674;10.014;2022-10-16T05:29:45;5.53;;;2.83;;
39584;SDS011;25278;53.674;10.014;2022-10-16T05:32:12;5.00;;;3.38;;
39584;SDS011;25278;53.674;10.014;2022-10-16T05:34:38;7.15;;;3.80;;
39584;SDS011;25278;53.674;10.014;2022-10-16T05:37:04;8.98;;;4.00;;
39584;SDS011;25278;53.674;10.014;2022-10-16T05:39:30;8.68;;;4.65;;
39584;SDS011;25278;53.674;10.014;2022-10-16T05:41:56;8.05;;;3.42;;
39584;SDS011;25278;53.674;10.014;2022-10-16T05:44:22;6.47;;;3.85;;
39584;SDS011;25278;53.674;10.014;2022-10-16T05:46:48;12.20;;;3.33;;
39584;SDS011;25278;53.674;10.014;2022-10-16T05:49:14;4.95;;;3.15;;
39584;SDS011;25278;53.674;10.014;2022-10-16T05:51:39;7.75;;;3.67;;
39584;SDS011;25278;53.674;10.014;2022-10-16T05:54:06;7.38;;;2.67;;
39584;SDS011;25278;53.674;10.014;2022-10-16T05:56:31;6.45;;;3.90;;
39584;SDS011;25278;53.674;10.014;2022-10-16T05:58:57;7.05;;;3.53;;
39584;SDS011;25278;53.674;10.014;2022-10-16T06:01:22;7.18;;;3.63;;
39584;SDS011;25278;53.674;10.014;2022-10-16T06:03:49;7.88;;;3.60;;
39584;SDS011;25278;53.674;10.014;2022-10-16T06:06:17;12.00;;;3.75;;
39584;SDS011;25278;53.674;10.014;2022-10-16T06:08:44;7.90;;;3.45;;
39584;SDS011;25278;53.674;10.014;2022-10-16T06:11:11;6.85;;;3.25;;
39584;SDS011;25278;53.674;10.014;2022-10-16T06:13:39;5.93;;;3.25;;
39584;SDS011;25278;53.674;10.014;2022-10-16T06:16:07;7.50;;;3.17;;
39584;SDS011;25278;53.674;10.014;2022-10-16T06:18:35;18.90;;;3.78;;
39584;SDS011;25278;53.674;10.014;2022-10-16T06:21:06;7.32;;;3.13;;
39584;SDS011;25278;53.674;10.014;2022-10-16T06:23:34;5.05;;;2.72;;
39584;SDS011;25278;53.674;10.014;2022-10-16T06:26:07;7.55;;;2.78;;
39584;SDS011;25278;53.674;10.014;2022-10-16T06:28:36;7.55;;;3.10;;
39584;SDS011;25278;53.674;10.014;2022-10-16T06:31:02;7.55;;;2.78;;
39584;SDS011;25278;53.674;10.014;2022-10-16T06:33:29;6.07;;;2.70;;
39584;SDS011;25278;53.674;10.014;2022-10-16T06:36:00;5.22;;;2.80;;
39584;SDS011;25278;53.674;10.014;2022-10-16T06:38:35;4.15;;;2.67;;
39584;SDS011;25278;53.674;10.014;2022-10-16T06:41:01;6.03;;;3.05;;
39584;SDS011;25278;53.674;10.014;2022-10-16T06:43:36;6.22;;;2.58;;
39584;SDS011;25278;53.674;10.014;2022-10-16T06:46:03;7.47;;;4.15;;
39584;SDS011;25278;53.674;10.014;2022-10-16T06:48:30;5.32;;;2.70;;
39584;SDS011;25278;53.674;10.014;2022-10-16T06:53:25;9.35;;;3.20;;
39584;SDS011;25278;53.674;10.014;2022-10-16T06:55:52;8.10;;;3.47;;
39584;SDS011;25278;53.674;10.014;2022-10-16T06:58:18;6.25;;;3.65;;
39584;SDS011;25278;53.674;10.014;2022-10-16T07:00:43;7.10;;;3.15;;
39584;SDS011;25278;53.674;10.014;2022-10-16T07:03:12;7.82;;;2.90;;
39584;SDS011;25278;53.674;10.014;2022-10-16T07:05:38;4.32;;;2.58;;
39584;SDS011;25278;53.674;10.014;2022-10-16T07:08:04;6.85;;;2.88;;
39584;SDS011;25278;53.674;10.014;2022-10-16T07:10:31;7.25;;;2.70;;
39584;SDS011;25278;53.674;10.014;2022-10-16T07:12:57;7.30;;;3.28;;
39584;SDS011;25278;53.674;10.014;2022-10-16T07:15:23;5.28;;;3.13;;
39584;SDS011;25278;53.674;10.014;2022-10-16T07:17:50;5.55;;;2.70;;
39584;SDS011;25278;53.674;10.014;2022-10-16T07:20:15;6.55;;;3.28;;
39584;SDS011;25278;53.674;10.014;2022-10-16T07:22:41;4.68;;;3.22;;
39584;SDS011;25278;53.674;10.014;2022-10-16T07:25:07;5.13;;;3.00;;
39584;SDS011;25278;53.674;10.014;2022-10-16T07:27:33;4.57;;;3.00;;
39584;SDS011;25278;53.674;10.014;2022-10-16T07:30:00;9.48;;;3.42;;
39584;SDS011;25278;53.674;10.014;2022-10-16T07:32:25;8.93;;;3.45;;
39584;SDS011;25278;53.674;10.014;2022-10-16T07:34:52;6.55;;;3.10;;
39584;SDS011;25278;53.674;10.014;2022-10-16T07:37:18;5.95;;;3.33;;
39584;SDS011;25278;53.674;10.014;2022-10-16T07:39:44;8.65;;;3.45;;
39584;SDS011;25278;53.674;10.014;2022-10-16T07:42:10;10.70;;;3.67;;
39584;SDS011;25278;53.674;10.014;2022-10-16T07:44:36;5.97;;;3.33;;
39584;SDS011;25278;53.674;10.014;2022-10-16T07:47:02;6.93;;;3.50;;
39584;SDS011;25278;53.674;10.014;2022-10-16T07:49:28;7.70;;;3.53;;
39584;SDS011;25278;53.674;10.014;2022-10-16T07:51:53;4.65;;;2.90;;
39584;SDS011;25278;53.674;10.014;2022-10-16T07:54:19;7.15;;;3.90;;
39584;SDS011;25278;53.674;10.014;2022-10-16T07:56:45;9.02;;;3.40;;
39584;SDS011;25278;53.674;10.014;2022-10-16T07:59:11;5.68;;;3.28;;
39584;SDS011;25278;53.674;10.014;2022-10-16T08:01:37;6.13;;;4.18;;
39584;SDS011;25278;53.674;10.014;2022-10-16T08:04:03;5.15;;;3.50;;
39584;SDS011;25278;53.674;10.014;2022-10-16T08:06:29;5.40;;;3.42;;
39584;SDS011;25278;53.674;10.014;2022-10-16T08:09:00;6.40;;;3.92;;
39584;SDS011;25278;53.674;10.014;2022-10-16T08:11:26;9.43;;;3.67;;
39584;SDS011;25278;53.674;10.014;2022-10-16T08:13:52;6.45;;;3.67;;
39584;SDS011;25278;53.674;10.014;2022-10-16T08:16:18;4.70;;;3.28;;
39584;SDS011;25278;53.674;10.014;2022-10-16T08:18:44;6.53;;;3.55;;
39584;SDS011;25278;53.674;10.014;2022-10-16T08:21:12;4.75;;;3.60;;
39584;SDS011;25278;53.674;10.014;2022-10-16T08:23:39;7.55;;;3.97;;
39584;SDS011;25278;53.674;10.014;2022-10-16T08:26:06;5.40;;;3.33;;
39584;SDS011;25278;53.674;10.014;2022-10-16T08:28:32;4.10;;;3.22;;
39584;SDS011;25278;53.674;10.014;2022-10-16T08:31:05;6.50;;;3.60;;
39584;SDS011;25278;53.674;10.014;2022-10-16T08:33:31;4.13;;;2.90;;
39584;SDS011;25278;53.674;10.014;2022-10-16T08:35:59;5.13;;;3.08;;
39584;SDS011;25278;53.674;10.014;2022-10-16T08:38:25;4.65;;;3.35;;
39584;SDS011;25278;53.674;10.014;2022-10-16T08:40:51;5.35;;;3.67;;
39584;SDS011;25278;53.674;10.014;2022-10-16T08:43:36;9.93;;;3.58;;
39584;SDS011;25278;53.674;10.014;2022-10-16T08:51:00;6.00;;;3.17;;
39584;SDS011;25278;53.674;10.014;2022-10-16T08:53:31;8.10;;;3.00;;
39584;SDS011;25278;53.674;10.014;2022-10-16T08:55:59;4.80;;;3.42;;
39584;SDS011;25278;53.674;10.014;2022-10-16T08:58:29;6.93;;;3.25;;
39584;SDS011;25278;53.674;10.014;2022-10-16T09:01:00;9.02;;;4.45;;
39584;SDS011;25278;53.674;10.014;2022-10-16T09:03:40;8.75;;;3.20;;
39584;SDS011;25278;53.674;10.014;2022-10-16T09:12:26;5.20;;;2.50;;
39584;SDS011;25278;53.674;10.014;2022-10-16T09:15:04;5.07;;;2.45;;
39584;SDS011;25278;53.674;10.014;2022-10-16T09:17:49;4.10;;;2.45;;
39584;SDS011;25278;53.674;10.014;2022-10-16T09:20:59;7.65;;;2.50;;
39584;SDS011;25278;53.674;10.014;2022-10-16T09:23:35;8.20;;;2.55;;
39584;SDS011;25278;53.674;10.014;2022-10-16T09:26:02;2.90;;;2.28;;
39584;SDS011;25278;53.674;10.014;2022-10-16T09:28:29;5.55;;;2.22;;
39584;SDS011;25278;53.674;10.014;2022-10-16T09:30:55;5.30;;;2.22;;
39584;SDS011;25278;53.674;10.014;2022-10-16T09:33:23;4.65;;;2.38;;
39584;SDS011;25278;53.674;10.014;2022-10-16T09:35:55;3.63;;;1.70;;
39584;SDS011;25278;53.674;10.014;2022-10-16T09:38:25;5.95;;;2.20;;
39584;SDS011;25278;53.674;10.014;2022-10-16T09:40:53;5.00;;;2.20;;
39584;SDS011;25278;53.674;10.014;2022-10-16T09:43:21;6.32;;;1.92;;
39584;SDS011;25278;53.674;10.014;2022-10-16T09:45:57;4.95;;;1.90;;
39584;SDS011;25278;53.674;10.014;2022-10-16T09:48:25;3.15;;;1.70;;
39584;SDS011;25278;53.674;10.014;2022-10-16T09:50:56;7.13;;;2.15;;
39584;SDS011;25278;53.674;10.014;2022-10-16T09:53:26;4.30;;;1.77;;
39584;SDS011;25278;53.674;10.014;2022-10-16T09:56:04;4.38;;;1.77;;
39584;SDS011;25278;53.674;10.014;2022-10-16T09:58:31;6.88;;;2.08;;
39584;SDS011;25278;53.674;10.014;2022-10-16T10:00:58;6.82;;;1.50;;
39584;SDS011;25278;53.674;10.014;2022-10-16T10:03:30;4.53;;;1.30;;
39584;SDS011;25278;53.674;10.014;2022-10-16T10:06:16;4.18;;;1.70;;
39584;SDS011;25278;53.674;10.014;2022-10-16T10:09:00;5.38;;;1.60;;
39584;SDS011;25278;53.674;10.014;2022-10-16T10:11:43;7.85;;;1.92;;
39584;SDS011;25278;53.674;10.014;2022-10-16T10:14:19;4.18;;;1.35;;
39584;SDS011;25278;53.674;10.014;2022-10-16T10:16:48;7.10;;;1.92;;
39584;SDS011;25278;53.674;10.014;2022-10-16T10:19:23;5.95;;;1.85;;
39584;SDS011;25278;53.674;10.014;2022-10-16T10:21:50;4.03;;;1.40;;
39584;SDS011;25278;53.674;10.014;2022-10-16T10:24:17;5.72;;;1.42;;
39584;SDS011;25278;53.674;10.014;2022-10-16T10:30:27;5.68;;;1.67;;
39584;SDS011;25278;53.674;10.014;2022-10-16T10:32:38;6.97;;;1.58;;
39584;SDS011;25278;53.674;10.014;2022-10-16T10:35:14;3.35;;;1.55;;
39584;SDS011;25278;53.674;10.014;2022-10-16T10:46:08;4.03;;;1.40;;
39584;SDS011;25278;53.674;10.014;2022-10-16T10:48:47;6.05;;;1.38;;
39584;SDS011;25278;53.674;10.014;2022-10-16T10:51:41;7.05;;;1.60;;
39584;SDS011;25278;53.674;10.014;2022-10-16T10:54:23;6.90;;;1.73;;
39584;SDS011;25278;53.674;10.014;2022-10-16T10:57:36;4.10;;;1.73;;
39584;SDS011;25278;53.674;10.014;2022-10-16T11:00:15;6.95;;;1.92;;
39584;SDS011;25278;53.674;10.014;2022-10-16T11:05:47;5.32;;;1.90;;
39584;SDS011;25278;53.674;10.014;2022-10-16T11:11:25;4.53;;;1.30;;
39584;SDS011;25278;53.674;10.014;2022-10-16T11:14:16;5.80;;;1.20;;
39584;SDS011;25278;53.674;10.014;2022-10-16T11:17:00;3.42;;;1.10;;
39584;SDS011;25278;53.674;10.014;2022-10-16T11:22:17;5.43;;;1.38;;
39584;SDS011;25278;53.674;10.014;2022-10-16T11:24:49;3.67;;;0.90;;
39584;SDS011;25278;53.674;10.014;2022-10-16T11:27:21;4.53;;;1.20;;
39584;SDS011;25278;53.674;10.014;2022-10-16T11:30:01;9.23;;;1.60;;
39584;SDS011;25278;53.674;10.014;2022-10-16T11:32:40;6.72;;;1.67;;
39584;SDS011;25278;53.674;10.014;2022-10-16T11:35:25;7.07;;;1.13;;
39584;SDS011;25278;53.674;10.014;2022-10-16T11:38:07;5.55;;;1.13;;
39584;SDS011;25278;53.674;10.014;2022-10-16T11:40:40;3.75;;;0.82;;
39584;SDS011;25278;53.674;10.014;2022-10-16T11:43:15;6.38;;;1.17;;
39584;SDS011;25278;53.674;10.014;2022-10-16T11:45:43;5.72;;;1.23;;
39584;SDS011;25278;53.674;10.014;2022-10-16T11:53:31;5.05;;;1.42;;
39584;SDS011;25278;53.674;10.014;2022-10-16T11:56:17;6.40;;;1.20;;
39584;SDS011;25278;53.674;10.014;2022-10-16T12:01:17;4.95;;;1.23;;
39584;SDS011;25278;53.674;10.014;2022-10-16T12:04:05;3.40;;;0.90;;
39584;SDS011;25278;53.674;10.014;2022-10-16T12:06:40;4.50;;;1.65;;
39584;SDS011;25278;53.674;10.014;2022-10-16T12:09:13;4.32;;;1.38;;
39584;SDS011;25278;53.674;10.014;2022-10-16T12:12:00;4.88;;;1.20;;
39584;SDS011;25278;53.674;10.014;2022-10-16T12:17:01;5.18;;;1.10;;
39584;SDS011;25278;53.674;10.014;2022-10-16T12:19:31;3.45;;;1.33;;
39584;SDS011;25278;53.674;10.014;2022-10-16T12:22:01;4.78;;;1.10;;
39584;SDS011;25278;53.674;10.014;2022-10-16T12:24:38;10.05;;;1.70;;
39584;SDS011;25278;53.674;10.014;2022-10-16T12:27:20;6.73;;;2.77;;
39584;SDS011;25278;53.674;10.014;2022-10-16T12:29:59;5.82;;;1.40;;
39584;SDS011;25278;53.674;10.014;2022-10-16T12:32:31;7.97;;;1.33;;
39584;SDS011;25278;53.674;10.014;2022-10-16T12:34:59;5.10;;;1.48;;
39584;SDS011;25278;53.674;10.014;2022-10-16T12:37:27;4.63;;;1.10;;
39584;SDS011;25278;53.674;10.014;2022-10-16T12:39:59;5.03;;;1.55;;
39584;SDS011;25278;53.674;10.014;2022-10-16T12:42:41;5.28;;;1.30;;
39584;SDS011;25278;53.674;10.014;2022-10-16T12:45:27;3.67;;;1.05;;
39584;SDS011;25278;53.674;10.014;2022-10-16T12:47:56;6.10;;;1.60;;
39584;SDS011;25278;53.674;10.014;2022-10-16T12:50:40;4.80;;;1.27;;
39584;SDS011;25278;53.674;10.014;2022-10-16T12:53:20;3.30;;;1.10;;
39584;SDS011;25278;53.674;10.014;2022-10-16T12:55:52;3.75;;;1.20;;
39584;SDS011;25278;53.674;10.014;2022-10-16T13:03:52;5.10;;;1.90;;
39584;SDS011;25278;53.674;10.014;2022-10-16T13:06:51;7.95;;;1.88;;
39584;SDS011;25278;53.674;10.014;2022-10-16T13:09:36;6.38;;;1.25;;
39584;SDS011;25278;53.674;10.014;2022-10-16T13:12:18;6.68;;;1.75;;
39584;SDS011;25278;53.674;10.014;2022-10-16T13:15:11;6.07;;;1.27;;
39584;SDS011;25278;53.674;10.014;2022-10-16T13:23:21;5.00;;;1.45;;
39584;SDS011;25278;53.674;10.014;2022-10-16T13:26:11;5.88;;;1.38;;
39584;SDS011;25278;53.674;10.014;2022-10-16T13:28:53;7.30;;;2.08;;
39584;SDS011;25278;53.674;10.014;2022-10-16T13:31:24;5.70;;;1.20;;
39584;SDS011;25278;53.674;10.014;2022-10-16T13:33:51;7.25;;;1.25;;
39584;SDS011;25278;53.674;10.014;2022-10-16T13:38:46;5.75;;;1.58;;
39584;SDS011;25278;53.674;10.014;2022-10-16T13:41:13;7.30;;;1.67;;
39584;SDS011;25278;53.674;10.014;2022-10-16T13:43:47;6.22;;;1.42;;
39584;SDS011;25278;53.674;10.014;2022-10-16T13:46:16;6.93;;;1.38;;
39584;SDS011;25278;53.674;10.014;2022-10-16T13:48:43;5.75;;;1.45;;
39584;SDS011;25278;53.674;10.014;2022-10-16T13:51:13;6.75;;;1.92;;
39584;SDS011;25278;53.674;10.014;2022-10-16T13:53:40;7.22;;;1.55;;
39584;SDS011;25278;53.674;10.014;2022-10-16T13:56:07;3.88;;;1.38;;
39584;SDS011;25278;53.674;10.014;2022-10-16T13:58:39;9.88;;;1.45;;
39584;SDS011;25278;53.674;10.014;2022-10-16T14:01:18;7.13;;;1.50;;
39584;SDS011;25278;53.674;10.014;2022-10-16T14:03:48;5.18;;;1.05;;
39584;SDS011;25278;53.674;10.014;2022-10-16T14:06:15;4.72;;;1.30;;
39584;SDS011;25278;53.674;10.014;2022-10-16T14:08:44;7.82;;;2.03;;
39584;SDS011;25278;53.674;10.014;2022-10-16T14:11:20;4.10;;;1.30;;
39584;SDS011;25278;53.674;10.014;2022-10-16T14:13:48;5.70;;;2.80;;
39584;SDS011;25278;53.674;10.014;2022-10-16T14:16:16;6.15;;;1.90;;
39584;SDS011;25278;53.674;10.014;2022-10-16T14:18:45;7.55;;;1.70;;
39584;SDS011;25278;53.674;10.014;2022-10-16T14:21:12;8.75;;;2.30;;
39584;SDS011;25278;53.674;10.014;2022-10-16T14:23:40;6.85;;;1.60;;
39584;SDS011;25278;53.674;10.014;2022-10-16T14:28:37;5.22;;;1.05;;
39584;SDS011;25278;53.674;10.014;2022-10-16T14:33:56;7.28;;;1.67;;
39584;SDS011;25278;53.674;10.014;2022-10-16T14:36:22;6.63;;;1.70;;
39584;SDS011;25278;53.674;10.014;2022-10-16T14:38:54;5.63;;;1.17;;
39584;SDS011;25278;53.674;10.014;2022-10-16T14:41:22;5.25;;;1.40;;
39584;SDS011;25278;53.674;10.014;2022-10-16T14:43:50;4.78;;;1.30;;
39584;SDS011;25278;53.674;10.014;2022-10-16T14:46:21;7.70;;;1.35;;
39584;SDS011;25278;53.674;10.014;2022-10-16T14:48:54;5.88;;;1.30;;
39584;SDS011;25278;53.674;10.014;2022-10-16T14:51:38;7.13;;;1.65;;
39584;SDS011;25278;53.674;10.014;2022-10-16T14:54:07;6.13;;;1.27;;
39584;SDS011;25278;53.674;10.014;2022-10-16T14:59:19;5.85;;;1.15;;
39584;SDS011;25278;53.674;10.014;2022-10-16T15:01:53;4.47;;;1.23;;
39584;SDS011;25278;53.674;10.014;2022-10-16T15:04:19;5.28;;;1.10;;
39584;SDS011;25278;53.674;10.014;2022-10-16T15:06:44;9.93;;;1.42;;
39584;SDS011;25278;53.674;10.014;2022-10-16T15:09:10;5.03;;;1.30;;
39584;SDS011;25278;53.674;10.014;2022-10-16T15:11:35;7.57;;;1.80;;
39584;SDS011;25278;53.674;10.014;2022-10-16T15:14:02;6.65;;;1.50;;
39584;SDS011;25278;53.674;10.014;2022-10-16T15:16:28;4.50;;;1.75;;
39584;SDS011;25278;53.674;10.014;2022-10-16T15:18:54;5.35;;;1.90;;
39584;SDS011;25278;53.674;10.014;2022-10-16T15:21:23;3.78;;;1.23;;
39584;SDS011;25278;53.674;10.014;2022-10-16T15:23:51;4.95;;;1.38;;
39584;SDS011;25278;53.674;10.014;2022-10-16T15:26:17;8.60;;;2.00;;
39584;SDS011;25278;53.674;10.014;2022-10-16T15:28:42;5.40;;;1.67;;
39584;SDS011;25278;53.674;10.014;2022-10-16T15:31:08;5.35;;;1.52;;
39584;SDS011;25278;53.674;10.014;2022-10-16T15:33:34;6.07;;;1.88;;
39584;SDS011;25278;53.674;10.014;2022-10-16T15:36:00;5.30;;;1.92;;
39584;SDS011;25278;53.674;10.014;2022-10-16T15:38:27;6.95;;;1.60;;
39584;SDS011;25278;53.674;10.014;2022-10-16T15:40:53;8.13;;;1.90;;
39584;SDS011;25278;53.674;10.014;2022-10-16T15:43:19;7.20;;;1.60;;
39584;SDS011;25278;53.674;10.014;2022-10-16T15:45:47;4.40;;;1.63;;
39584;SDS011;25278;53.674;10.014;2022-10-16T15:48:25;10.20;;;1.70;;
39584;SDS011;25278;53.674;10.014;2022-10-16T15:50:50;5.95;;;1.50;;
39584;SDS011;25278;53.674;10.014;2022-10-16T15:53:16;10.38;;;2.67;;
39584;SDS011;25278;53.674;10.014;2022-10-16T15:55:41;8.60;;;1.98;;
39584;SDS011;25278;53.674;10.014;2022-10-16T15:58:07;5.65;;;1.63;;
39584;SDS011;25278;53.674;10.014;2022-10-16T16:00:32;8.07;;;1.63;;
39584;SDS011;25278;53.674;10.014;2022-10-16T16:02:58;7.65;;;1.77;;
39584;SDS011;25278;53.674;10.014;2022-10-16T16:05:24;4.85;;;1.50;;
39584;SDS011;25278;53.674;10.014;2022-10-16T16:07:49;8.68;;;1.90;;
39584;SDS011;25278;53.674;10.014;2022-10-16T16:10:15;7.90;;;1.88;;
39584;SDS011;25278;53.674;10.014;2022-10-16T16:12:41;7.45;;;1.65;;
39584;SDS011;25278;53.674;10.014;2022-10-16T16:15:08;7.97;;;2.17;;
39584;SDS011;25278;53.674;10.014;2022-10-16T16:17:34;10.40;;;1.70;;
39584;SDS011;25278;53.674;10.014;2022-10-16T16:20:01;5.50;;;1.70;;
39584;SDS011;25278;53.674;10.014;2022-10-16T16:22:27;5.78;;;1.77;;
39584;SDS011;25278;53.674;10.014;2022-10-16T16:24:53;8.02;;;2.03;;
39584;SDS011;25278;53.674;10.014;2022-10-16T16:27:19;7.70;;;1.70;;
39584;SDS011;25278;53.674;10.014;2022-10-16T16:29:45;7.00;;;1.88;;
39584;SDS011;25278;53.674;10.014;2022-10-16T16:32:11;8.35;;;2.03;;
39584;SDS011;25278;53.674;10.014;2022-10-16T16:34:37;8.88;;;1.90;;
39584;SDS011;25278;53.674;10.014;2022-10-16T16:37:02;4.40;;;1.92;;
39584;SDS011;25278;53.674;10.014;2022-10-16T16:39:28;8.20;;;2.03;;
39584;SDS011;25278;53.674;10.014;2022-10-16T16:41:55;7.05;;;2.38;;
39584;SDS011;25278;53.674;10.014;2022-10-16T16:44:21;8.15;;;2.15;;
39584;SDS011;25278;53.674;10.014;2022-10-16T16:46:47;7.20;;;2.13;;
39584;SDS011;25278;53.674;10.014;2022-10-16T16:49:12;8.90;;;2.60;;
39584;SDS011;25278;53.674;10.014;2022-10-16T16:51:39;7.13;;;2.50;;
39584;SDS011;25278;53.674;10.014;2022-10-16T16:54:05;8.32;;;2.67;;
39584;SDS011;25278;53.674;10.014;2022-10-16T16:56:32;10.52;;;2.33;;
39584;SDS011;25278;53.674;10.014;2022-10-16T16:58:58;11.25;;;3.25;;
39584;SDS011;25278;53.674;10.014;2022-10-16T17:01:24;9.15;;;2.92;;
39584;SDS011;25278;53.674;10.014;2022-10-16T17:03:51;6.65;;;2.30;;
39584;SDS011;25278;53.674;10.014;2022-10-16T17:06:19;9.80;;;2.30;;
39584;SDS011;25278;53.674;10.014;2022-10-16T17:08:47;12.65;;;2.35;;
39584;SDS011;25278;53.674;10.014;2022-10-16T17:11:15;7.60;;;1.70;;
39584;SDS011;25278;53.674;10.014;2022-10-16T17:13:45;6.60;;;1.98;;
39584;SDS011;25278;53.674;10.014;2022-10-16T17:16:11;8.48;;;2.47;;
39584;SDS011;25278;53.674;10.014;2022-10-16T17:18:37;7.25;;;2.00;;
39584;SDS011;25278;53.674;10.014;2022-10-16T17:21:04;9.27;;;2.47;;
39584;SDS011;25278;53.674;10.014;2022-10-16T17:23:30;9.90;;;2.10;;
39584;SDS011;25278;53.674;10.014;2022-10-16T17:25:58;9.35;;;2.35;;
39584;SDS011;25278;53.674;10.014;2022-10-16T17:28:27;8.18;;;2.42;;
39584;SDS011;25278;53.674;10.014;2022-10-16T17:30:53;7.78;;;2.42;;
39584;SDS011;25278;53.674;10.014;2022-10-16T17:33:19;13.93;;;2.95;;
39584;SDS011;25278;53.674;10.014;2022-10-16T17:35:45;7.95;;;2.60;;
39584;SDS011;25278;53.674;10.014;2022-10-16T17:38:11;9.73;;;3.00;;
39584;SDS011;25278;53.674;10.014;2022-10-16T17:40:39;11.15;;;2.92;;
39584;SDS011;25278;53.674;10.014;2022-10-16T17:43:05;6.82;;;2.60;;
39584;SDS011;25278;53.674;10.014;2022-10-16T17:45:31;9.70;;;3.25;;
39584;SDS011;25278;53.674;10.014;2022-10-16T17:47:57;8.63;;;2.85;;
39584;SDS011;25278;53.674;10.014;2022-10-16T17:50:24;18.98;;;3.53;;
39584;SDS011;25278;53.674;10.014;2022-10-16T17:52:50;9.27;;;3.67;;
39584;SDS011;25278;53.674;10.014;2022-10-16T17:55:15;9.05;;;2.90;;
39584;SDS011;25278;53.674;10.014;2022-10-16T17:57:41;14.23;;;3.83;;
39584;SDS011;25278;53.674;10.014;2022-10-16T18:00:08;7.50;;;3.10;;
39584;SDS011;25278;53.674;10.014;2022-10-16T18:02:34;8.82;;;3.10;;
39584;SDS011;25278;53.674;10.014;2022-10-16T18:05:00;12.68;;;4.30;;
39584;SDS011;25278;53.674;10.014;2022-10-16T18:07:30;10.82;;;4.18;;
39584;SDS011;25278;53.674;10.014;2022-10-16T18:09:55;12.38;;;3.90;;
39584;SDS011;25278;53.674;10.014;2022-10-16T18:12:21;9.93;;;4.32;;
39584;SDS011;25278;53.674;10.014;2022-10-16T18:14:47;13.07;;;4.43;;
39584;SDS011;25278;53.674;10.014;2022-10-16T18:17:13;12.15;;;4.35;;
39584;SDS011;25278;53.674;10.014;2022-10-16T18:19:43;8.30;;;3.85;;
39584;SDS011;25278;53.674;10.014;2022-10-16T18:22:09;7.88;;;3.95;;
39584;SDS011;25278;53.674;10.014;2022-10-16T18:24:35;15.35;;;3.92;;
39584;SDS011;25278;53.674;10.014;2022-10-16T18:27:01;13.38;;;3.63;;
39584;SDS011;25278;53.674;10.014;2022-10-16T18:29:27;7.07;;;3.28;;
39584;SDS011;25278;53.674;10.014;2022-10-16T18:31:53;12.07;;;4.70;;
39584;SDS011;25278;53.674;10.014;2022-10-16T18:34:19;15.10;;;4.18;;
39584;SDS011;25278;53.674;10.014;2022-10-16T18:36:45;14.60;;;4.68;;
39584;SDS011;25278;53.674;10.014;2022-10-16T18:39:11;17.55;;;8.27;;
39584;SDS011;25278;53.674;10.014;2022-10-16T18:41:38;17.38;;;8.02;;
39584;SDS011;25278;53.674;10.014;2022-10-16T18:44:04;18.35;;;8.18;;
39584;SDS011;25278;53.674;10.014;2022-10-16T18:46:31;16.50;;;6.15;;
39584;SDS011;25278;53.674;10.014;2022-10-16T18:48:57;10.35;;;5.03;;
39584;SDS011;25278;53.674;10.014;2022-10-16T18:51:29;14.52;;;6.28;;
39584;SDS011;25278;53.674;10.014;2022-10-16T18:53:56;16.67;;;5.75;;
39584;SDS011;25278;53.674;10.014;2022-10-16T18:56:24;17.58;;;6.18;;
39584;SDS011;25278;53.674;10.014;2022-10-16T18:58:50;14.50;;;6.18;;
39584;SDS011;25278;53.674;10.014;2022-10-16T19:01:19;20.40;;;5.97;;
39584;SDS011;25278;53.674;10.014;2022-10-16T19:03:46;19.08;;;5.78;;
39584;SDS011;25278;53.674;10.014;2022-10-16T19:06:13;16.80;;;7.63;;
39584;SDS011;25278;53.674;10.014;2022-10-16T19:08:39;18.15;;;7.47;;
39584;SDS011;25278;53.674;10.014;2022-10-16T19:11:10;21.05;;;7.47;;
39584;SDS011;25278;53.674;10.014;2022-10-16T19:13:36;15.45;;;7.82;;
39584;SDS011;25278;53.674;10.014;2022-10-16T19:16:02;20.33;;;12.02;;
39584;SDS011;25278;53.674;10.014;2022-10-16T19:18:29;18.67;;;9.43;;
39584;SDS011;25278;53.674;10.014;2022-10-16T19:21:01;15.63;;;9.45;;
39584;SDS011;25278;53.674;10.014;2022-10-16T19:23:27;18.75;;;10.13;;